sensor_id;sensor_type;location;lat;lon;timestamp;temperature;humidity
37281;DHT22;23169;41.804;12.596;2022-12-29T00:00:16;12.40;1.00
37281;DHT22;23169;41.804;12.596;2022-12-29T00:02:43;12.30;1.00
37281;DHT22;23169;41.804;12.596;2022-12-29T00:05:10;12.30;1.00
37281;DHT22;23169;41.804;12.596;2022-12-29T00:07:37;12.30;1.00
37281;DHT22;23169;41.804;12.596;2022-12-29T00:10:05;12.40;1.00
37281;DHT22;23169;41.804;12.596;2022-12-29T00:12:32;12.40;1.00
37281;DHT22;23169;41.804;12.596;2022-12-29T00:15:19;12.40;1.00
37281;DHT22;23169;41.804;12.596;2022-12-29T00:18:05;12.40;1.00
37281;DHT22;23169;41.804;12.596;2022-12-29T00:20:33;12.40;1.00
37281;DHT22;23169;41.804;12.596;2022-12-29T00:23:19;12.30;1.00
37281;DHT22;23169;41.804;12.596;2022-12-29T00:26:09;12.20;1.00
37281;DHT22;23169;41.804;12.596;2022-12-29T00:28:56;12.20;1.00
37281;DHT22;23169;41.804;12.596;2022-12-29T00:31:42;11.70;1.00
37281;DHT22;23169;41.804;12.596;2022-12-29T00:34:28;11.20;1.00
37281;DHT22;23169;41.804;12.596;2022-12-29T00:37:14;10.80;1.00
37281;DHT22;23169;41.804;12.596;2022-12-29T00:39:41;10.50;99.90
37281;DHT22;23169;41.804;12.596;2022-12-29T00:42:27;10.30;99.90
37281;DHT22;23169;41.804;12.596;2022-12-29T00:45:13;10.10;99.90
37281;DHT22;23169;41.804;12.596;2022-12-29T00:47:40;10.00;1.00
37281;DHT22;23169;41.804;12.596;2022-12-29T00:50:07;9.90;1.00
37281;DHT22;23169;41.804;12.596;2022-12-29T00:52:35;9.90;1.00
37281;DHT22;23169;41.804;12.596;2022-12-29T00:55:02;9.90;21.30
37281;DHT22;23169;41.804;12.596;2022-12-29T00:57:29;9.90;99.90
37281;DHT22;23169;41.804;12.596;2022-12-29T00:59:56;9.90;99.90
37281;DHT22;23169;41.804;12.596;2022-12-29T01:02:24;10.00;99.90
37281;DHT22;23169;41.804;12.596;2022-12-29T01:04:51;10.10;99.90
37281;DHT22;23169;41.804;12.596;2022-12-29T01:07:18;10.20;99.90
37281;DHT22;23169;41.804;12.596;2022-12-29T01:09:45;10.20;99.90
37281;DHT22;23169;41.804;12.596;2022-12-29T01:12:33;10.20;99.90
37281;DHT22;23169;41.804;12.596;2022-12-29T01:15:12;10.30;99.90
37281;DHT22;23169;41.804;12.596;2022-12-29T01:17:40;10.30;99.90
37281;DHT22;23169;41.804;12.596;2022-12-29T01:20:07;10.30;99.90
37281;DHT22;23169;41.804;12.596;2022-12-29T01:22:35;10.30;70.70
37281;DHT22;23169;41.804;12.596;2022-12-29T01:25:03;10.20;67.60
37281;DHT22;23169;41.804;12.596;2022-12-29T01:27:30;10.20;99.90
37281;DHT22;23169;41.804;12.596;2022-12-29T01:29:57;10.20;99.90
37281;DHT22;23169;41.804;12.596;2022-12-29T01:32:25;10.10;99.90
37281;DHT22;23169;41.804;12.596;2022-12-29T01:34:53;10.10;99.90
37281;DHT22;23169;41.804;12.596;2022-12-29T01:37:20;10.10;99.90
37281;DHT22;23169;41.804;12.596;2022-12-29T01:39:47;10.10;99.90
37281;DHT22;23169;41.804;12.596;2022-12-29T01:42:18;10.20;99.90
37281;DHT22;23169;41.804;12.596;2022-12-29T01:44:50;10.20;99.90
37281;DHT22;23169;41.804;12.596;2022-12-29T01:49:48;10.30;1.00
37281;DHT22;23169;41.804;12.596;2022-12-29T01:52:16;10.40;1.00
37281;DHT22;23169;41.804;12.596;2022-12-29T01:54:45;10.40;99.90
37281;DHT22;23169;41.804;12.596;2022-12-29T01:57:16;10.40;99.90
37281;DHT22;23169;41.804;12.596;2022-12-29T02:00:06;10.60;99.90
37281;DHT22;23169;41.804;12.596;2022-12-29T02:02:32;10.70;99.90
37281;DHT22;23169;41.804;12.596;2022-12-29T02:05:01;10.70;99.90
37281;DHT22;23169;41.804;12.596;2022-12-29T02:07:32;10.70;99.90
37281;DHT22;23169;41.804;12.596;2022-12-29T02:09:59;10.80;99.90
37281;DHT22;23169;41.804;12.596;2022-12-29T02:12:27;10.80;99.90
37281;DHT22;23169;41.804;12.596;2022-12-29T02:14:55;10.90;99.90
37281;DHT22;23169;41.804;12.596;2022-12-29T02:25:20;11.30;65.00
37281;DHT22;23169;41.804;12.596;2022-12-29T02:28:04;11.40;38.80
37281;DHT22;23169;41.804;12.596;2022-12-29T02:30:42;11.40;18.70
37281;DHT22;23169;41.804;12.596;2022-12-29T02:33:13;11.40;11.00
37281;DHT22;23169;41.804;12.596;2022-12-29T02:41:05;11.40;6.50
37281;DHT22;23169;41.804;12.596;2022-12-29T02:43:39;11.40;7.80
37281;DHT22;23169;41.804;12.596;2022-12-29T02:48:43;11.40;1.00
37281;DHT22;23169;41.804;12.596;2022-12-29T02:51:15;11.40;1.00
37281;DHT22;23169;41.804;12.596;2022-12-29T02:53:45;11.30;1.20
37281;DHT22;23169;41.804;12.596;2022-12-29T02:56:32;11.30;14.70
37281;DHT22;23169;41.804;12.596;2022-12-29T02:58:59;11.30;29.00
37281;DHT22;23169;41.804;12.596;2022-12-29T03:07:11;11.30;43.70
37281;DHT22;23169;41.804;12.596;2022-12-29T03:12:01;11.30;65.80
37281;DHT22;23169;41.804;12.596;2022-12-29T03:14:37;11.20;80.40
37281;DHT22;23169;41.804;12.596;2022-12-29T03:17:29;11.30;88.40
37281;DHT22;23169;41.804;12.596;2022-12-29T03:20:02;11.40;86.00
37281;DHT22;23169;41.804;12.596;2022-12-29T03:22:31;11.40;73.00
37281;DHT22;23169;41.804;12.596;2022-12-29T03:25:01;11.50;54.60
37281;DHT22;23169;41.804;12.596;2022-12-29T03:27:34;11.50;35.70
37281;DHT22;23169;41.804;12.596;2022-12-29T03:30:04;11.50;19.40
37281;DHT22;23169;41.804;12.596;2022-12-29T03:32:35;11.60;9.00
37281;DHT22;23169;41.804;12.596;2022-12-29T03:35:03;11.60;6.30
37281;DHT22;23169;41.804;12.596;2022-12-29T03:37:35;11.70;1.00
37281;DHT22;23169;41.804;12.596;2022-12-29T03:40:04;11.70;1.00
37281;DHT22;23169;41.804;12.596;2022-12-29T03:42:33;11.80;1.00
37281;DHT22;23169;41.804;12.596;2022-12-29T03:45:07;11.80;1.00
37281;DHT22;23169;41.804;12.596;2022-12-29T03:47:42;11.90;1.00
37281;DHT22;23169;41.804;12.596;2022-12-29T03:50:12;11.90;1.00
37281;DHT22;23169;41.804;12.596;2022-12-29T03:52:45;12.00;1.00
37281;DHT22;23169;41.804;12.596;2022-12-29T03:55:13;12.00;1.00
37281;DHT22;23169;41.804;12.596;2022-12-29T03:57:42;12.00;1.00
37281;DHT22;23169;41.804;12.596;2022-12-29T04:00:10;12.00;1.00
37281;DHT22;23169;41.804;12.596;2022-12-29T04:02:37;12.00;1.00
37281;DHT22;23169;41.804;12.596;2022-12-29T04:05:05;12.10;1.00
37281;DHT22;23169;41.804;12.596;2022-12-29T04:07:32;12.10;1.00
37281;DHT22;23169;41.804;12.596;2022-12-29T04:09:59;12.10;1.00
37281;DHT22;23169;41.804;12.596;2022-12-29T04:12:27;12.10;1.00
37281;DHT22;23169;41.804;12.596;2022-12-29T04:14:58;12.10;1.00
37281;DHT22;23169;41.804;12.596;2022-12-29T04:17:25;12.20;1.00
37281;DHT22;23169;41.804;12.596;2022-12-29T04:19:53;12.20;1.00
37281;DHT22;23169;41.804;12.596;2022-12-29T04:22:40;12.30;1.00
37281;DHT22;23169;41.804;12.596;2022-12-29T04:25:07;12.30;1.00
37281;DHT22;23169;41.804;12.596;2022-12-29T04:27:35;12.30;1.00
37281;DHT22;23169;41.804;12.596;2022-12-29T04:30:02;12.20;1.00
37281;DHT22;23169;41.804;12.596;2022-12-29T04:32:30;12.00;1.00
37281;DHT22;23169;41.804;12.596;2022-12-29T04:34:57;11.90;7.00
37281;DHT22;23169;41.804;12.596;2022-12-29T04:37:24;11.90;37.00
37281;DHT22;23169;41.804;12.596;2022-12-29T04:39:52;11.90;41.80
37281;DHT22;23169;41.804;12.596;2022-12-29T04:42:19;12.10;35.10
37281;DHT22;23169;41.804;12.596;2022-12-29T04:44:47;12.10;25.00
37281;DHT22;23169;41.804;12.596;2022-12-29T04:47:14;12.20;17.70
37281;DHT22;23169;41.804;12.596;2022-12-29T04:49:41;12.30;4.50
37281;DHT22;23169;41.804;12.596;2022-12-29T04:52:08;12.40;1.00
37281;DHT22;23169;41.804;12.596;2022-12-29T04:54:35;12.40;1.00
37281;DHT22;23169;41.804;12.596;2022-12-29T04:57:03;12.40;1.00
37281;DHT22;23169;41.804;12.596;2022-12-29T04:59:30;12.40;1.00
37281;DHT22;23169;41.804;12.596;2022-12-29T05:01:57;12.20;12.80
37281;DHT22;23169;41.804;12.596;2022-12-29T05:04:25;12.00;86.40
37281;DHT22;23169;41.804;12.596;2022-12-29T05:06:52;12.00;99.90
37281;DHT22;23169;41.804;12.596;2022-12-29T05:09:19;12.00;99.90
37281;DHT22;23169;41.804;12.596;2022-12-29T05:11:47;12.00;99.90
37281;DHT22;23169;41.804;12.596;2022-12-29T05:14:14;12.00;99.90
37281;DHT22;23169;41.804;12.596;2022-12-29T05:16:41;12.00;99.90
37281;DHT22;23169;41.804;12.596;2022-12-29T05:19:08;12.00;99.90
37281;DHT22;23169;41.804;12.596;2022-12-29T05:21:35;12.00;99.90
37281;DHT22;23169;41.804;12.596;2022-12-29T05:24:02;12.00;99.90
37281;DHT22;23169;41.804;12.596;2022-12-29T05:26:30;12.00;99.90
37281;DHT22;23169;41.804;12.596;2022-12-29T05:28:57;12.00;99.90
37281;DHT22;23169;41.804;12.596;2022-12-29T05:31:24;12.00;99.90
37281;DHT22;23169;41.804;12.596;2022-12-29T05:33:51;11.90;99.90
37281;DHT22;23169;41.804;12.596;2022-12-29T05:36:19;11.90;99.90
37281;DHT22;23169;41.804;12.596;2022-12-29T05:38:46;11.90;99.90
37281;DHT22;23169;41.804;12.596;2022-12-29T05:41:14;11.90;99.90
37281;DHT22;23169;41.804;12.596;2022-12-29T05:43:41;12.00;99.90
37281;DHT22;23169;41.804;12.596;2022-12-29T05:46:09;12.00;99.90
37281;DHT22;23169;41.804;12.596;2022-12-29T05:48:37;12.00;99.90
37281;DHT22;23169;41.804;12.596;2022-12-29T05:51:04;12.00;99.90
37281;DHT22;23169;41.804;12.596;2022-12-29T05:53:31;12.00;99.90
37281;DHT22;23169;41.804;12.596;2022-12-29T05:55:59;12.10;99.90
37281;DHT22;23169;41.804;12.596;2022-12-29T05:58:26;12.00;99.90
37281;DHT22;23169;41.804;12.596;2022-12-29T06:00:53;12.00;99.90
37281;DHT22;23169;41.804;12.596;2022-12-29T06:03:20;12.00;99.90
37281;DHT22;23169;41.804;12.596;2022-12-29T06:05:48;12.00;99.90
37281;DHT22;23169;41.804;12.596;2022-12-29T06:08:15;12.00;99.90
37281;DHT22;23169;41.804;12.596;2022-12-29T06:10:42;12.10;99.90
37281;DHT22;23169;41.804;12.596;2022-12-29T06:13:09;12.00;99.90
37281;DHT22;23169;41.804;12.596;2022-12-29T06:15:37;12.30;99.90
37281;DHT22;23169;41.804;12.596;2022-12-29T06:18:04;12.00;99.90
37281;DHT22;23169;41.804;12.596;2022-12-29T06:20:31;12.00;99.90
37281;DHT22;23169;41.804;12.596;2022-12-29T06:22:59;11.90;99.90
37281;DHT22;23169;41.804;12.596;2022-12-29T06:25:26;11.90;99.90
37281;DHT22;23169;41.804;12.596;2022-12-29T06:27:53;11.90;99.90
37281;DHT22;23169;41.804;12.596;2022-12-29T06:30:21;11.90;99.90
37281;DHT22;23169;41.804;12.596;2022-12-29T06:32:48;11.90;99.90
37281;DHT22;23169;41.804;12.596;2022-12-29T06:35:15;11.90;99.90
37281;DHT22;23169;41.804;12.596;2022-12-29T06:37:43;11.90;99.90
37281;DHT22;23169;41.804;12.596;2022-12-29T06:40:10;12.00;99.90
37281;DHT22;23169;41.804;12.596;2022-12-29T06:42:38;9.80;99.90
37281;DHT22;23169;41.804;12.596;2022-12-29T06:45:06;12.00;99.90
37281;DHT22;23169;41.804;12.596;2022-12-29T06:47:34;12.10;99.90
37281;DHT22;23169;41.804;12.596;2022-12-29T06:50:02;12.10;99.90
37281;DHT22;23169;41.804;12.596;2022-12-29T06:52:30;12.20;99.90
37281;DHT22;23169;41.804;12.596;2022-12-29T06:54:57;12.20;1.00
37281;DHT22;23169;41.804;12.596;2022-12-29T06:57:26;12.30;99.90
37281;DHT22;23169;41.804;12.596;2022-12-29T06:59:53;12.30;99.90
37281;DHT22;23169;41.804;12.596;2022-12-29T07:02:24;12.30;99.90
37281;DHT22;23169;41.804;12.596;2022-12-29T07:04:52;12.40;1.00
37281;DHT22;23169;41.804;12.596;2022-12-29T07:07:19;12.50;99.90
37281;DHT22;23169;41.804;12.596;2022-12-29T07:09:47;12.50;99.90
37281;DHT22;23169;41.804;12.596;2022-12-29T07:12:14;12.40;99.90
37281;DHT22;23169;41.804;12.596;2022-12-29T07:14:41;12.40;99.90
37281;DHT22;23169;41.804;12.596;2022-12-29T07:17:09;12.50;99.90
37281;DHT22;23169;41.804;12.596;2022-12-29T07:19:36;12.50;99.90
37281;DHT22;23169;41.804;12.596;2022-12-29T07:22:03;12.50;99.90
37281;DHT22;23169;41.804;12.596;2022-12-29T07:24:31;12.60;99.90
37281;DHT22;23169;41.804;12.596;2022-12-29T07:26:58;12.50;99.90
37281;DHT22;23169;41.804;12.596;2022-12-29T07:29:25;12.50;99.90
37281;DHT22;23169;41.804;12.596;2022-12-29T07:31:53;12.50;99.90
37281;DHT22;23169;41.804;12.596;2022-12-29T07:34:20;12.60;99.90
37281;DHT22;23169;41.804;12.596;2022-12-29T07:36:47;12.70;99.90
37281;DHT22;23169;41.804;12.596;2022-12-29T07:39:15;12.70;99.90
37281;DHT22;23169;41.804;12.596;2022-12-29T07:41:43;12.80;84.90
37281;DHT22;23169;41.804;12.596;2022-12-29T07:44:11;12.90;54.50
37281;DHT22;23169;41.804;12.596;2022-12-29T07:46:38;13.00;14.80
37281;DHT22;23169;41.804;12.596;2022-12-29T07:49:05;13.00;1.00
37281;DHT22;23169;41.804;12.596;2022-12-29T07:51:33;13.00;1.00
37281;DHT22;23169;41.804;12.596;2022-12-29T07:54:01;13.00;1.00
37281;DHT22;23169;41.804;12.596;2022-12-29T07:56:28;13.10;1.00
37281;DHT22;23169;41.804;12.596;2022-12-29T07:58:56;13.10;1.00
37281;DHT22;23169;41.804;12.596;2022-12-29T08:01:23;13.30;1.00
37281;DHT22;23169;41.804;12.596;2022-12-29T08:03:50;13.30;1.00
37281;DHT22;23169;41.804;12.596;2022-12-29T08:06:17;13.30;1.00
37281;DHT22;23169;41.804;12.596;2022-12-29T08:08:45;13.30;1.00
37281;DHT22;23169;41.804;12.596;2022-12-29T08:11:13;13.30;1.00
37281;DHT22;23169;41.804;12.596;2022-12-29T08:13:40;13.30;1.00
37281;DHT22;23169;41.804;12.596;2022-12-29T08:16:07;13.30;1.00
37281;DHT22;23169;41.804;12.596;2022-12-29T08:18:35;13.30;1.00
37281;DHT22;23169;41.804;12.596;2022-12-29T08:21:03;13.30;1.00
37281;DHT22;23169;41.804;12.596;2022-12-29T08:23:31;13.40;1.00
37281;DHT22;23169;41.804;12.596;2022-12-29T08:25:59;13.40;1.00
37281;DHT22;23169;41.804;12.596;2022-12-29T08:28:28;13.30;1.00
37281;DHT22;23169;41.804;12.596;2022-12-29T08:30:59;14.90;1.00
37281;DHT22;23169;41.804;12.596;2022-12-29T08:33:27;13.20;1.00
37281;DHT22;23169;41.804;12.596;2022-12-29T08:35:58;13.20;1.00
37281;DHT22;23169;41.804;12.596;2022-12-29T08:38:26;13.30;1.00
37281;DHT22;23169;41.804;12.596;2022-12-29T08:40:54;13.40;1.00
37281;DHT22;23169;41.804;12.596;2022-12-29T08:43:21;13.40;1.00
37281;DHT22;23169;41.804;12.596;2022-12-29T08:45:49;13.50;1.00
37281;DHT22;23169;41.804;12.596;2022-12-29T08:48:16;13.70;1.00
37281;DHT22;23169;41.804;12.596;2022-12-29T08:50:46;13.80;1.00
37281;DHT22;23169;41.804;12.596;2022-12-29T08:53:13;14.00;1.00
37281;DHT22;23169;41.804;12.596;2022-12-29T08:55:41;14.10;1.00
37281;DHT22;23169;41.804;12.596;2022-12-29T08:58:08;14.20;1.00
37281;DHT22;23169;41.804;12.596;2022-12-29T09:00:35;14.40;1.00
37281;DHT22;23169;41.804;12.596;2022-12-29T09:03:03;14.50;1.00
37281;DHT22;23169;41.804;12.596;2022-12-29T09:05:30;14.60;99.90
37281;DHT22;23169;41.804;12.596;2022-12-29T09:07:58;14.70;99.90
37281;DHT22;23169;41.804;12.596;2022-12-29T09:10:25;14.80;99.90
37281;DHT22;23169;41.804;12.596;2022-12-29T09:12:52;14.90;99.90
37281;DHT22;23169;41.804;12.596;2022-12-29T09:15:19;15.00;99.90
37281;DHT22;23169;41.804;12.596;2022-12-29T09:17:47;15.10;99.90
37281;DHT22;23169;41.804;12.596;2022-12-29T09:20:15;15.20;99.90
37281;DHT22;23169;41.804;12.596;2022-12-29T09:22:44;15.30;99.90
37281;DHT22;23169;41.804;12.596;2022-12-29T09:25:11;15.40;99.90
37281;DHT22;23169;41.804;12.596;2022-12-29T09:27:39;15.40;99.90
37281;DHT22;23169;41.804;12.596;2022-12-29T09:30:07;15.40;99.90
37281;DHT22;23169;41.804;12.596;2022-12-29T09:32:35;15.40;99.90
37281;DHT22;23169;41.804;12.596;2022-12-29T09:35:03;15.50;99.90
37281;DHT22;23169;41.804;12.596;2022-12-29T09:37:30;15.60;99.90
37281;DHT22;23169;41.804;12.596;2022-12-29T09:39:57;15.70;99.90
37281;DHT22;23169;41.804;12.596;2022-12-29T09:45:04;15.60;99.90
37281;DHT22;23169;41.804;12.596;2022-12-29T09:47:33;15.50;99.90
37281;DHT22;23169;41.804;12.596;2022-12-29T09:50:02;15.50;99.90
37281;DHT22;23169;41.804;12.596;2022-12-29T09:52:32;15.60;99.90
37281;DHT22;23169;41.804;12.596;2022-12-29T09:55:03;15.60;99.90
37281;DHT22;23169;41.804;12.596;2022-12-29T10:00:08;15.70;99.90
37281;DHT22;23169;41.804;12.596;2022-12-29T10:05:50;15.70;99.90
37281;DHT22;23169;41.804;12.596;2022-12-29T10:10:53;16.00;99.90
37281;DHT22;23169;41.804;12.596;2022-12-29T10:13:28;16.10;99.90
37281;DHT22;23169;41.804;12.596;2022-12-29T10:23:44;16.10;99.90
37281;DHT22;23169;41.804;12.596;2022-12-29T10:26:14;16.00;99.90
37281;DHT22;23169;41.804;12.596;2022-12-29T10:28:47;15.90;99.90
37281;DHT22;23169;41.804;12.596;2022-12-29T10:31:21;16.00;99.90
37281;DHT22;23169;41.804;12.596;2022-12-29T10:34:12;16.20;99.90
37281;DHT22;23169;41.804;12.596;2022-12-29T10:36:43;16.20;99.90
37281;DHT22;23169;41.804;12.596;2022-12-29T10:39:16;16.40;99.90
37281;DHT22;23169;41.804;12.596;2022-12-29T10:41:50;16.30;99.90
37281;DHT22;23169;41.804;12.596;2022-12-29T10:44:18;16.20;99.90
37281;DHT22;23169;41.804;12.596;2022-12-29T10:46:51;16.00;99.90
37281;DHT22;23169;41.804;12.596;2022-12-29T10:49:20;16.00;99.90
37281;DHT22;23169;41.804;12.596;2022-12-29T10:51:47;16.20;99.90
37281;DHT22;23169;41.804;12.596;2022-12-29T10:54:23;16.50;99.90
37281;DHT22;23169;41.804;12.596;2022-12-29T10:56:59;16.40;99.90
37281;DHT22;23169;41.804;12.596;2022-12-29T10:59:29;16.50;99.90
37281;DHT22;23169;41.804;12.596;2022-12-29T11:06:58;16.70;99.90
37281;DHT22;23169;41.804;12.596;2022-12-29T11:09:28;16.90;99.90
37281;DHT22;23169;41.804;12.596;2022-12-29T11:11:55;16.90;99.90
37281;DHT22;23169;41.804;12.596;2022-12-29T11:14:29;16.80;99.90
37281;DHT22;23169;41.804;12.596;2022-12-29T11:16:58;16.70;99.90
37281;DHT22;23169;41.804;12.596;2022-12-29T11:19:26;16.50;99.90
37281;DHT22;23169;41.804;12.596;2022-12-29T11:21:54;16.50;99.90
37281;DHT22;23169;41.804;12.596;2022-12-29T11:26:50;16.60;99.90
37281;DHT22;23169;41.804;12.596;2022-12-29T11:29:21;16.80;99.90
37281;DHT22;23169;41.804;12.596;2022-12-29T11:31:49;16.70;99.90
37281;DHT22;23169;41.804;12.596;2022-12-29T11:34:21;16.80;99.90
37281;DHT22;23169;41.804;12.596;2022-12-29T11:36:51;16.70;99.90
37281;DHT22;23169;41.804;12.596;2022-12-29T11:39:26;16.60;99.90
37281;DHT22;23169;41.804;12.596;2022-12-29T11:41:55;16.60;99.90
37281;DHT22;23169;41.804;12.596;2022-12-29T11:44:23;16.60;99.90
37281;DHT22;23169;41.804;12.596;2022-12-29T11:46:51;16.50;99.90
37281;DHT22;23169;41.804;12.596;2022-12-29T11:49:23;16.50;99.90
37281;DHT22;23169;41.804;12.596;2022-12-29T11:51:51;16.70;99.90
37281;DHT22;23169;41.804;12.596;2022-12-29T11:54:30;16.60;99.90
37281;DHT22;23169;41.804;12.596;2022-12-29T11:56:58;16.90;99.90
37281;DHT22;23169;41.804;12.596;2022-12-29T11:59:37;16.90;99.90
37281;DHT22;23169;41.804;12.596;2022-12-29T12:02:22;16.80;99.90
37281;DHT22;23169;41.804;12.596;2022-12-29T12:04:53;16.90;99.90
37281;DHT22;23169;41.804;12.596;2022-12-29T12:07:27;17.00;99.90
37281;DHT22;23169;41.804;12.596;2022-12-29T12:10:00;17.30;99.90
37281;DHT22;23169;41.804;12.596;2022-12-29T12:12:47;17.40;99.90
37281;DHT22;23169;41.804;12.596;2022-12-29T12:15:20;17.50;99.90
37281;DHT22;23169;41.804;12.596;2022-12-29T12:20:41;17.20;99.90
37281;DHT22;23169;41.804;12.596;2022-12-29T12:31:21;17.60;99.90
37281;DHT22;23169;41.804;12.596;2022-12-29T12:33:53;17.40;99.90
37281;DHT22;23169;41.804;12.596;2022-12-29T12:44:39;17.20;99.90
37281;DHT22;23169;41.804;12.596;2022-12-29T12:49:54;17.30;99.90
37281;DHT22;23169;41.804;12.596;2022-12-29T12:59:56;17.40;99.90
37281;DHT22;23169;41.804;12.596;2022-12-29T13:02:28;17.40;99.90
37281;DHT22;23169;41.804;12.596;2022-12-29T13:17:51;17.40;99.90
37281;DHT22;23169;41.804;12.596;2022-12-29T13:23:04;17.20;99.90
37281;DHT22;23169;41.804;12.596;2022-12-29T13:25:43;17.10;99.90
37281;DHT22;23169;41.804;12.596;2022-12-29T13:28:29;17.20;99.90
37281;DHT22;23169;41.804;12.596;2022-12-29T13:31:10;17.20;99.90
37281;DHT22;23169;41.804;12.596;2022-12-29T13:36:23;15.50;99.90
37281;DHT22;23169;41.804;12.596;2022-12-29T13:39:01;17.60;99.90
37281;DHT22;23169;41.804;12.596;2022-12-29T13:41:34;17.80;99.90
37281;DHT22;23169;41.804;12.596;2022-12-29T13:44:03;18.10;99.90
37281;DHT22;23169;41.804;12.596;2022-12-29T13:46:33;18.60;99.90
37281;DHT22;23169;41.804;12.596;2022-12-29T13:49:04;18.70;99.90
37281;DHT22;23169;41.804;12.596;2022-12-29T13:51:32;18.50;99.90
37281;DHT22;23169;41.804;12.596;2022-12-29T13:56:54;18.70;99.90
37281;DHT22;23169;41.804;12.596;2022-12-29T14:04:23;17.60;99.90
37281;DHT22;23169;41.804;12.596;2022-12-29T14:07:00;17.70;99.90
37281;DHT22;23169;41.804;12.596;2022-12-29T14:12:19;17.60;99.90
37281;DHT22;23169;41.804;12.596;2022-12-29T14:14:48;17.60;99.90
37281;DHT22;23169;41.804;12.596;2022-12-29T14:17:18;17.50;99.90
37281;DHT22;23169;41.804;12.596;2022-12-29T14:19:47;17.40;99.90
37281;DHT22;23169;41.804;12.596;2022-12-29T14:22:24;17.30;99.90
37281;DHT22;23169;41.804;12.596;2022-12-29T14:24:52;17.40;99.90
37281;DHT22;23169;41.804;12.596;2022-12-29T14:29:48;17.50;99.90
37281;DHT22;23169;41.804;12.596;2022-12-29T14:34:56;17.50;99.90
37281;DHT22;23169;41.804;12.596;2022-12-29T14:40:04;17.50;99.90
37281;DHT22;23169;41.804;12.596;2022-12-29T14:42:32;17.50;99.90
37281;DHT22;23169;41.804;12.596;2022-12-29T14:49:55;17.50;99.90
37281;DHT22;23169;41.804;12.596;2022-12-29T14:52:24;17.10;99.90
37281;DHT22;23169;41.804;12.596;2022-12-29T14:57:21;17.30;99.90
37281;DHT22;23169;41.804;12.596;2022-12-29T14:59:52;17.70;99.90
37281;DHT22;23169;41.804;12.596;2022-12-29T15:02:22;17.80;99.90
37281;DHT22;23169;41.804;12.596;2022-12-29T15:04:50;17.70;99.90
37281;DHT22;23169;41.804;12.596;2022-12-29T15:07:18;17.70;99.90
37281;DHT22;23169;41.804;12.596;2022-12-29T15:09:47;17.60;99.90
37281;DHT22;23169;41.804;12.596;2022-12-29T15:12:22;17.50;99.90
37281;DHT22;23169;41.804;12.596;2022-12-29T15:14:55;17.10;99.90
37281;DHT22;23169;41.804;12.596;2022-12-29T15:17:27;16.90;99.90
37281;DHT22;23169;41.804;12.596;2022-12-29T15:19:55;16.60;99.90
37281;DHT22;23169;41.804;12.596;2022-12-29T15:22:23;16.50;99.90
37281;DHT22;23169;41.804;12.596;2022-12-29T15:24:51;16.50;99.90
37281;DHT22;23169;41.804;12.596;2022-12-29T15:27:22;16.50;99.90
37281;DHT22;23169;41.804;12.596;2022-12-29T15:30:00;16.40;99.90
37281;DHT22;23169;41.804;12.596;2022-12-29T15:32:42;16.30;99.90
37281;DHT22;23169;41.804;12.596;2022-12-29T15:35:23;16.10;99.90
37281;DHT22;23169;41.804;12.596;2022-12-29T15:37:52;15.80;99.90
37281;DHT22;23169;41.804;12.596;2022-12-29T15:40:29;15.60;99.90
37281;DHT22;23169;41.804;12.596;2022-12-29T15:43:12;15.40;99.90
37281;DHT22;23169;41.804;12.596;2022-12-29T15:45:42;15.20;99.90
37281;DHT22;23169;41.804;12.596;2022-12-29T15:48:13;15.10;99.90
37281;DHT22;23169;41.804;12.596;2022-12-29T15:50:42;14.90;99.90
37281;DHT22;23169;41.804;12.596;2022-12-29T15:53:11;14.80;99.90
37281;DHT22;23169;41.804;12.596;2022-12-29T15:55:40;14.80;99.90
37281;DHT22;23169;41.804;12.596;2022-12-29T16:01:04;14.60;1.00
37281;DHT22;23169;41.804;12.596;2022-12-29T16:03:33;14.50;1.00
37281;DHT22;23169;41.804;12.596;2022-12-29T16:06:10;14.50;1.00
37281;DHT22;23169;41.804;12.596;2022-12-29T16:08:58;14.40;1.00
37281;DHT22;23169;41.804;12.596;2022-12-29T16:11:38;14.30;1.00
37281;DHT22;23169;41.804;12.596;2022-12-29T16:14:08;14.30;1.00
37281;DHT22;23169;41.804;12.596;2022-12-29T16:16:37;14.30;1.00
37281;DHT22;23169;41.804;12.596;2022-12-29T16:21:51;14.20;1.00
37281;DHT22;23169;41.804;12.596;2022-12-29T16:24:19;14.20;1.00
37281;DHT22;23169;41.804;12.596;2022-12-29T16:27:09;14.10;1.00
37281;DHT22;23169;41.804;12.596;2022-12-29T16:29:34;14.10;22.90
37281;DHT22;23169;41.804;12.596;2022-12-29T16:32:02;14.00;56.20
37281;DHT22;23169;41.804;12.596;2022-12-29T16:34:33;14.00;82.80
37281;DHT22;23169;41.804;12.596;2022-12-29T16:40:40;14.00;99.90
37281;DHT22;23169;41.804;12.596;2022-12-29T16:43:01;14.00;99.90
37281;DHT22;23169;41.804;12.596;2022-12-29T16:50:40;13.90;99.90
37281;DHT22;23169;41.804;12.596;2022-12-29T16:55:54;13.90;99.90
37281;DHT22;23169;41.804;12.596;2022-12-29T16:58:22;13.90;99.90
37281;DHT22;23169;41.804;12.596;2022-12-29T17:01:00;13.90;99.90
37281;DHT22;23169;41.804;12.596;2022-12-29T17:03:43;13.90;99.90
37281;DHT22;23169;41.804;12.596;2022-12-29T17:06:16;13.90;99.90
37281;DHT22;23169;41.804;12.596;2022-12-29T17:08:45;13.90;99.90
37281;DHT22;23169;41.804;12.596;2022-12-29T17:11:21;13.90;99.90
37281;DHT22;23169;41.804;12.596;2022-12-29T17:16:48;13.90;99.90
37281;DHT22;23169;41.804;12.596;2022-12-29T17:19:16;13.80;99.90
37281;DHT22;23169;41.804;12.596;2022-12-29T17:21:44;13.80;99.90
37281;DHT22;23169;41.804;12.596;2022-12-29T17:24:13;13.80;99.90
37281;DHT22;23169;41.804;12.596;2022-12-29T17:26:42;13.80;99.90
37281;DHT22;23169;41.804;12.596;2022-12-29T17:29:13;13.80;99.90
37281;DHT22;23169;41.804;12.596;2022-12-29T17:31:43;13.80;99.90
37281;DHT22;23169;41.804;12.596;2022-12-29T17:34:11;13.80;99.90
37281;DHT22;23169;41.804;12.596;2022-12-29T17:36:39;13.80;99.90
37281;DHT22;23169;41.804;12.596;2022-12-29T17:39:07;13.80;99.90
37281;DHT22;23169;41.804;12.596;2022-12-29T17:41:35;13.80;99.90
37281;DHT22;23169;41.804;12.596;2022-12-29T17:44:03;13.80;99.90
37281;DHT22;23169;41.804;12.596;2022-12-29T17:46:30;13.80;99.90
37281;DHT22;23169;41.804;12.596;2022-12-29T17:48:57;13.80;99.90
37281;DHT22;23169;41.804;12.596;2022-12-29T17:51:25;13.80;99.90
37281;DHT22;23169;41.804;12.596;2022-12-29T17:53:52;13.80;99.90
37281;DHT22;23169;41.804;12.596;2022-12-29T17:56:19;13.80;99.90
37281;DHT22;23169;41.804;12.596;2022-12-29T17:58:47;13.80;99.90
37281;DHT22;23169;41.804;12.596;2022-12-29T18:01:14;13.80;99.90
37281;DHT22;23169;41.804;12.596;2022-12-29T18:03:44;13.80;99.90